sensor_id;sensor_type;location;lat;lon;timestamp;pressure;altitude;pressure_sealevel;temperature;humidity
79455;BME280;68900;52.134;5.420;2024-03-23T05:04:50;101061.81;;;5.59;100.00
79455;BME280;68900;52.134;5.420;2024-03-23T05:07:19;101055.59;;;5.58;100.00
79455;BME280;68900;52.134;5.420;2024-03-23T05:09:45;101061.16;;;5.55;100.00
79455;BME280;68900;52.134;5.420;2024-03-23T05:12:11;101061.91;;;5.57;100.00
79455;BME280;68900;52.134;5.420;2024-03-23T05:14:36;101067.38;;;5.56;100.00
79455;BME280;68900;52.134;5.420;2024-03-23T05:17:02;101061.16;;;5.55;100.00
79455;BME280;68900;52.134;5.420;2024-03-23T05:19:28;101061.41;;;5.52;100.00
79455;BME280;68900;52.134;5.420;2024-03-23T05:21:54;101061.66;;;5.49;100.00
79455;BME280;68900;52.134;5.420;2024-03-23T05:47:00;101071.13;;;5.29;100.00
79455;BME280;68900;52.134;5.420;2024-03-23T06:00:02;101052.31;;;5.31;100.00
79455;BME280;68900;52.134;5.420;2024-03-23T06:05:26;101062.53;;;5.37;100.00
79455;BME280;68900;52.134;5.420;2024-03-23T06:07:54;101058.56;;;5.43;100.00
79455;BME280;68900;52.134;5.420;2024-03-23T06:10:20;101055.16;;;5.41;100.00
79455;BME280;68900;52.134;5.420;2024-03-23T07:06:55;101047.75;;;5.92;100.00
79455;BME280;68900;52.134;5.420;2024-03-23T07:09:39;101052.97;;;5.93;100.00
79455;BME280;68900;52.134;5.420;2024-03-23T07:23:24;101042.09;;;6.30;99.63
79455;BME280;68900;52.134;5.420;2024-03-23T07:26:03;101043.84;;;6.42;99.22
79455;BME280;68900;52.134;5.420;2024-03-23T07:28:34;101036.16;;;6.48;99.67
79455;BME280;68900;52.134;5.420;2024-03-23T07:31:08;101046.41;;;6.54;99.25
79455;BME280;68900;52.134;5.420;2024-03-23T07:33:40;101046.53;;;6.64;99.49
79455;BME280;68900;52.134;5.420;2024-03-23T07:36:06;101046.06;;;6.70;98.86
79455;BME280;68900;52.134;5.420;2024-03-23T07:38:32;101043.13;;;6.73;98.91
79455;BME280;68900;52.134;5.420;2024-03-23T07:41:05;101042.75;;;6.78;98.30
79455;BME280;68900;52.134;5.420;2024-03-23T07:43:32;101053.22;;;6.81;98.22
79455;BME280;68900;52.134;5.420;2024-03-23T07:45:58;101043.84;;;6.86;97.46
79455;BME280;68900;52.134;5.420;2024-03-23T07:48:27;101044.44;;;6.90;97.19
79455;BME280;68900;52.134;5.420;2024-03-23T07:53:31;101046.41;;;6.99;96.47
79455;BME280;68900;52.134;5.420;2024-03-23T07:56:09;101047.38;;;7.09;95.95
79455;BME280;68900;52.134;5.420;2024-03-23T07:58:49;101047.72;;;7.16;96.04
79455;BME280;68900;52.134;5.420;2024-03-23T08:01:18;101043.44;;;7.13;94.73
79455;BME280;68900;52.134;5.420;2024-03-23T08:03:50;101048.69;;;7.15;94.50
79455;BME280;68900;52.134;5.420;2024-03-23T08:06:22;101042.00;;;7.20;95.25
79455;BME280;68900;52.134;5.420;2024-03-23T08:09:03;101035.66;;;7.21;94.56
79455;BME280;68900;52.134;5.420;2024-03-23T08:11:30;101043.44;;;7.24;93.68
79455;BME280;68900;52.134;5.420;2024-03-23T08:13:56;101036.25;;;7.25;92.98
79455;BME280;68900;52.134;5.420;2024-03-23T08:16:23;101033.31;;;7.28;92.01
79455;BME280;68900;52.134;5.420;2024-03-23T08:18:52;101028.69;;;7.30;91.75
79455;BME280;68900;52.134;5.420;2024-03-23T08:21:18;101033.03;;;7.31;91.35
79455;BME280;68900;52.134;5.420;2024-03-23T08:23:44;101033.91;;;7.31;90.84
79455;BME280;68900;52.134;5.420;2024-03-23T08:26:32;101037.22;;;7.35;90.50
79455;BME280;68900;52.134;5.420;2024-03-23T08:29:07;101044.72;;;7.41;90.30
79455;BME280;68900;52.134;5.420;2024-03-23T08:31:57;101039.84;;;7.46;90.71
79455;BME280;68900;52.134;5.420;2024-03-23T08:34:23;101051.06;;;7.51;90.96
79455;BME280;68900;52.134;5.420;2024-03-23T08:36:53;101043.09;;;7.61;91.08
79455;BME280;68900;52.134;5.420;2024-03-23T08:39:20;101037.06;;;7.68;90.02
79455;BME280;68900;52.134;5.420;2024-03-23T08:41:46;101041.97;;;7.63;88.40
79455;BME280;68900;52.134;5.420;2024-03-23T08:44:12;101043.09;;;7.61;86.35
79455;BME280;68900;52.134;5.420;2024-03-23T08:46:47;101050.41;;;7.59;86.99
79455;BME280;68900;52.134;5.420;2024-03-23T08:49:16;101052.13;;;7.60;86.79
79455;BME280;68900;52.134;5.420;2024-03-23T08:51:41;101047.41;;;7.52;86.72
79455;BME280;68900;52.134;5.420;2024-03-23T08:54:07;101044.50;;;7.44;87.75
79455;BME280;68900;52.134;5.420;2024-03-23T09:03:05;101038.19;;;7.34;87.31
79455;BME280;68900;52.134;5.420;2024-03-23T09:05:31;101033.19;;;7.29;87.01
79455;BME280;68900;52.134;5.420;2024-03-23T09:31:13;101034.72;;;6.89;89.25
79455;BME280;68900;52.134;5.420;2024-03-23T09:33:41;101031.91;;;6.90;89.83
79455;BME280;68900;52.134;5.420;2024-03-23T09:36:07;101029.59;;;6.86;90.72
79455;BME280;68900;52.134;5.420;2024-03-23T10:07:52;101019.34;;;7.02;93.83
79455;BME280;68900;52.134;5.420;2024-03-23T10:10:18;101020.06;;;7.15;94.44
79455;BME280;68900;52.134;5.420;2024-03-23T10:12:45;101013.81;;;7.26;94.45
79455;BME280;68900;52.134;5.420;2024-03-23T10:15:24;101011.56;;;7.42;93.96
79455;BME280;68900;52.134;5.420;2024-03-23T10:17:52;101013.84;;;7.58;93.77
79455;BME280;68900;52.134;5.420;2024-03-23T10:20:22;101006.56;;;7.69;92.01
79455;BME280;68900;52.134;5.420;2024-03-23T10:22:51;101010.06;;;7.81;89.56
79455;BME280;68900;52.134;5.420;2024-03-23T10:25:24;101029.84;;;7.80;89.57
79455;BME280;68900;52.134;5.420;2024-03-23T10:27:59;101020.56;;;7.73;86.70
79455;BME280;68900;52.134;5.420;2024-03-23T10:30:26;101019.59;;;7.74;87.15
79455;BME280;68900;52.134;5.420;2024-03-23T10:33:11;101019.09;;;7.80;87.18
79455;BME280;68900;52.134;5.420;2024-03-23T10:35:38;101009.69;;;7.85;86.38
79455;BME280;68900;52.134;5.420;2024-03-23T10:38:07;101024.00;;;7.95;86.47
79455;BME280;68900;52.134;5.420;2024-03-23T10:40:36;101014.91;;;8.08;86.44
79455;BME280;68900;52.134;5.420;2024-03-23T10:43:12;100996.00;;;8.09;82.60
79455;BME280;68900;52.134;5.420;2024-03-23T10:45:39;101006.66;;;8.20;83.42
79455;BME280;68900;52.134;5.420;2024-03-23T10:48:05;101003.06;;;8.31;83.88
79455;BME280;68900;52.134;5.420;2024-03-23T10:50:31;101012.56;;;8.35;84.14
79455;BME280;68900;52.134;5.420;2024-03-23T10:55:43;101024.22;;;8.24;83.40
79455;BME280;68900;52.134;5.420;2024-03-23T10:58:10;101036.00;;;7.91;84.94
79455;BME280;68900;52.134;5.420;2024-03-23T11:00:38;101038.53;;;7.72;85.29
79455;BME280;68900;52.134;5.420;2024-03-23T11:03:33;101031.19;;;7.53;86.37
79455;BME280;68900;52.134;5.420;2024-03-23T11:06:01;101035.22;;;7.48;87.03
79455;BME280;68900;52.134;5.420;2024-03-23T11:09:37;101024.47;;;7.48;88.08
79455;BME280;68900;52.134;5.420;2024-03-23T12:13:03;100979.63;;;8.42;75.79
79455;BME280;68900;52.134;5.420;2024-03-23T12:15:45;100988.25;;;8.36;75.38
79455;BME280;68900;52.134;5.420;2024-03-23T12:21:46;100982.47;;;8.20;75.94
79455;BME280;68900;52.134;5.420;2024-03-23T12:35:42;100962.91;;;8.60;73.48
79455;BME280;68900;52.134;5.420;2024-03-23T13:03:03;100947.94;;;8.76;73.26
79455;BME280;68900;52.134;5.420;2024-03-23T13:06:03;100942.53;;;8.67;74.23
79455;BME280;68900;52.134;5.420;2024-03-23T13:08:45;100944.19;;;8.58;73.79
79455;BME280;68900;52.134;5.420;2024-03-23T13:11:20;100945.47;;;8.54;73.69
79455;BME280;68900;52.134;5.420;2024-03-23T13:13:59;100955.78;;;8.49;72.97
79455;BME280;68900;52.134;5.420;2024-03-23T13:46:50;100953.84;;;7.89;75.63
79455;BME280;68900;52.134;5.420;2024-03-23T14:05:13;100938.38;;;8.23;75.42
79455;BME280;68900;52.134;5.420;2024-03-23T14:08:13;100931.50;;;8.30;75.21
79455;BME280;68900;52.134;5.420;2024-03-23T14:27:45;100914.03;;;8.45;74.25
79455;BME280;68900;52.134;5.420;2024-03-23T14:34:11;100903.38;;;8.43;74.82
79455;BME280;68900;52.134;5.420;2024-03-23T14:37:12;100901.44;;;8.46;75.00
79455;BME280;68900;52.134;5.420;2024-03-23T14:40:02;100895.19;;;8.45;75.40
79455;BME280;68900;52.134;5.420;2024-03-23T14:43:18;100891.53;;;8.46;74.80
79455;BME280;68900;52.134;5.420;2024-03-23T14:46:06;100903.72;;;8.50;75.21
79455;BME280;68900;52.134;5.420;2024-03-23T14:48:36;100892.66;;;8.53;74.66
79455;BME280;68900;52.134;5.420;2024-03-23T14:51:07;100886.16;;;8.56;73.98
79455;BME280;68900;52.134;5.420;2024-03-23T14:53:37;100894.53;;;8.62;71.90
79455;BME280;68900;52.134;5.420;2024-03-23T15:00:28;100886.31;;;8.54;71.48
79455;BME280;68900;52.134;5.420;2024-03-23T15:03:18;100891.28;;;8.59;72.12
79455;BME280;68900;52.134;5.420;2024-03-23T15:09:16;100885.63;;;8.62;72.50
79455;BME280;68900;52.134;5.420;2024-03-23T15:11:57;100874.72;;;8.63;72.82
79455;BME280;68900;52.134;5.420;2024-03-23T15:14:40;100870.19;;;8.64;71.85
79455;BME280;68900;52.134;5.420;2024-03-23T15:17:06;100877.66;;;8.60;72.74
79455;BME280;68900;52.134;5.420;2024-03-23T15:19:35;100877.41;;;8.63;73.93
79455;BME280;68900;52.134;5.420;2024-03-23T15:22:10;100869.06;;;8.66;73.17
79455;BME280;68900;52.134;5.420;2024-03-23T15:24:36;100883.50;;;8.65;72.55
79455;BME280;68900;52.134;5.420;2024-03-23T15:27:03;100876.00;;;8.59;71.31
79455;BME280;68900;52.134;5.420;2024-03-23T15:29:52;100869.91;;;8.57;71.22
79455;BME280;68900;52.134;5.420;2024-03-23T15:32:20;100871.72;;;8.57;71.85
79455;BME280;68900;52.134;5.420;2024-03-23T15:34:53;100870.31;;;8.53;71.52
79455;BME280;68900;52.134;5.420;2024-03-23T15:37:21;100878.25;;;8.54;72.26
79455;BME280;68900;52.134;5.420;2024-03-23T15:50:11;100880.78;;;8.46;73.24
79455;BME280;68900;52.134;5.420;2024-03-23T15:52:36;100873.13;;;8.41;75.32
79455;BME280;68900;52.134;5.420;2024-03-23T16:56:46;100866.63;;;7.42;83.67
79455;BME280;68900;52.134;5.420;2024-03-23T16:59:11;100866.63;;;7.42;83.90
79455;BME280;68900;52.134;5.420;2024-03-23T17:01:43;100870.16;;;7.42;85.18
79455;BME280;68900;52.134;5.420;2024-03-23T17:20:21;100852.38;;;6.89;83.95
79455;BME280;68900;52.134;5.420;2024-03-23T17:22:53;100846.88;;;6.90;84.26
79455;BME280;68900;52.134;5.420;2024-03-23T17:25:19;100841.28;;;6.93;84.96
79455;BME280;68900;52.134;5.420;2024-03-23T17:28:55;100839.81;;;6.89;85.47
79455;BME280;68900;52.134;5.420;2024-03-23T17:31:22;100840.19;;;6.85;85.25
79455;BME280;68900;52.134;5.420;2024-03-23T17:33:56;100848.13;;;6.86;85.86
79455;BME280;68900;52.134;5.420;2024-03-23T17:36:34;100857.03;;;6.76;86.00
79455;BME280;68900;52.134;5.420;2024-03-23T17:39:25;100845.72;;;6.72;86.88
79455;BME280;68900;52.134;5.420;2024-03-23T17:42:11;100844.53;;;6.65;86.61
79455;BME280;68900;52.134;5.420;2024-03-23T18:10:25;100832.50;;;6.48;88.76
79455;BME280;68900;52.134;5.420;2024-03-23T18:51:49;100828.81;;;6.29;90.75
79455;BME280;68900;52.134;5.420;2024-03-23T18:54:15;100827.94;;;6.28;91.31
79455;BME280;68900;52.134;5.420;2024-03-23T18:56:41;100825.63;;;6.24;91.36
79455;BME280;68900;52.134;5.420;2024-03-23T18:59:09;100829.28;;;6.22;90.88
79455;BME280;68900;52.134;5.420;2024-03-23T19:01:38;100823.19;;;6.20;90.60
79455;BME280;68900;52.134;5.420;2024-03-23T19:04:06;100826.88;;;6.19;91.43
79455;BME280;68900;52.134;5.420;2024-03-23T19:06:39;100823.44;;;6.17;91.08
79455;BME280;68900;52.134;5.420;2024-03-23T19:09:18;100820.03;;;6.15;90.99
79455;BME280;68900;52.134;5.420;2024-03-23T19:11:44;100822.84;;;6.14;91.16
79455;BME280;68900;52.134;5.420;2024-03-23T19:23:27;100822.22;;;6.10;91.40
79455;BME280;68900;52.134;5.420;2024-03-23T19:48:54;100806.81;;;5.92;91.33
79455;BME280;68900;52.134;5.420;2024-03-23T19:51:23;100799.59;;;5.92;91.46
79455;BME280;68900;52.134;5.420;2024-03-23T19:54:27;100796.31;;;5.89;91.22
79455;BME280;68900;52.134;5.420;2024-03-23T19:57:08;100798.38;;;5.85;91.36
79455;BME280;68900;52.134;5.420;2024-03-23T19:59:34;100807.50;;;5.83;91.66
79455;BME280;68900;52.134;5.420;2024-03-23T20:05:31;100791.44;;;5.83;92.27
79455;BME280;68900;52.134;5.420;2024-03-23T20:34:56;100769.66;;;5.54;92.76
79455;BME280;68900;52.134;5.420;2024-03-23T20:59:08;100758.09;;;5.42;93.48
79455;BME280;68900;52.134;5.420;2024-03-23T21:01:40;100760.66;;;5.44;94.29
79455;BME280;68900;52.134;5.420;2024-03-23T21:04:05;100765.25;;;5.42;93.92
79455;BME280;68900;52.134;5.420;2024-03-23T21:09:37;100769.41;;;5.34;94.06
79455;BME280;68900;52.134;5.420;2024-03-23T21:45:39;100720.16;;;5.15;95.50
79455;BME280;68900;52.134;5.420;2024-03-23T21:52:25;100721.25;;;5.12;96.13
79455;BME280;68900;52.134;5.420;2024-03-23T22:04:19;100698.41;;;5.08;96.80
79455;BME280;68900;52.134;5.420;2024-03-23T22:06:45;100687.72;;;5.08;97.08
79455;BME280;68900;52.134;5.420;2024-03-23T22:09:22;100686.00;;;5.07;97.33
79455;BME280;68900;52.134;5.420;2024-03-23T22:14:57;100668.00;;;5.09;97.53
79455;BME280;68900;52.134;5.420;2024-03-23T22:21:10;100661.69;;;5.10;97.98
79455;BME280;68900;52.134;5.420;2024-03-23T22:23:50;100650.16;;;5.10;98.52
79455;BME280;68900;52.134;5.420;2024-03-23T22:26:17;100653.66;;;5.10;98.40
79455;BME280;68900;52.134;5.420;2024-03-23T22:28:46;100642.97;;;5.10;98.84
79455;BME280;68900;52.134;5.420;2024-03-23T22:31:27;100642.00;;;5.11;98.53
79455;BME280;68900;52.134;5.420;2024-03-23T22:33:58;100635.91;;;5.09;99.23
79455;BME280;68900;52.134;5.420;2024-03-23T22:36:30;100635.91;;;5.09;99.09
79455;BME280;68900;52.134;5.420;2024-03-23T22:38:55;100634.09;;;5.10;99.12
79455;BME280;68900;52.134;5.420;2024-03-23T22:41:22;100635.06;;;5.09;99.61
79455;BME280;68900;52.134;5.420;2024-03-23T22:44:09;100630.56;;;5.09;99.48
79455;BME280;68900;52.134;5.420;2024-03-23T22:46:35;100634.00;;;5.11;99.18
79455;BME280;68900;52.134;5.420;2024-03-23T22:49:04;100629.72;;;5.09;99.50
79455;BME280;68900;52.134;5.420;2024-03-23T22:51:30;100621.69;;;5.09;99.37
79455;BME280;68900;52.134;5.420;2024-03-23T22:54:10;100617.34;;;5.08;99.12
79455;BME280;68900;52.134;5.420;2024-03-23T22:56:51;100615.75;;;5.05;99.23
79455;BME280;68900;52.134;5.420;2024-03-23T22:59:35;100606.03;;;5.04;99.31
79455;BME280;68900;52.134;5.420;2024-03-23T23:02:03;100609.44;;;5.06;98.74
79455;BME280;68900;52.134;5.420;2024-03-23T23:04:29;100595.34;;;5.04;98.85
79455;BME280;68900;52.134;5.420;2024-03-23T23:07:07;100590.00;;;5.04;99.07
79455;BME280;68900;52.134;5.420;2024-03-23T23:09:37;100592.66;;;5.04;98.73
79455;BME280;68900;52.134;5.420;2024-03-23T23:12:03;100589.03;;;5.05;99.11
79455;BME280;68900;52.134;5.420;2024-03-23T23:14:38;100580.91;;;5.07;98.97
79455;BME280;68900;52.134;5.420;2024-03-23T23:24:50;100575.66;;;5.05;98.68
79455;BME280;68900;52.134;5.420;2024-03-23T23:27:17;100570.31;;;5.05;98.51
79455;BME280;68900;52.134;5.420;2024-03-23T23:29:51;100562.19;;;5.07;98.80
79455;BME280;68900;52.134;5.420;2024-03-23T23:36:10;100566.19;;;5.12;98.50
79455;BME280;68900;52.134;5.420;2024-03-23T23:38:38;100565.19;;;5.13;99.04
79455;BME280;68900;52.134;5.420;2024-03-23T23:51:29;100561.31;;;5.17;100.00
79455;BME280;68900;52.134;5.420;2024-03-23T23:53:54;100560.31;;;5.18;100.00
79455;BME280;68900;52.134;5.420;2024-03-23T23:56:20;100564.47;;;5.22;100.00
79455;BME280;68900;52.134;5.420;2024-03-23T23:58:46;100560.94;;;5.22;100.00
